Time;durP1;ratioP1;P1;durP2;ratioP2;P2;SDS_P1;SDS_P2;PMS_P1;PMS_P2;Temp;Humidity;BMP_temperature;BMP_pressure;BME280_temperature;BME280_humidity;BME280_pressure;Samples;Min_cycle;Max_cycle;Signal;HPM_P1;HPM_P2
2023/04/12 00:02:27;;;;;;;8.57;2.20;;;;;;;;;;5079796;28;20225;-95
2023/04/12 00:04:57;;;;;;;1.90;1.73;;;;;;;;;;5080723;28;20218;-94
2023/04/12 00:13:16;;;;;;;1.60;1.50;;;;;;;;;;5077896;28;20233;-95
2023/04/12 00:15:56;;;;;;;7.73;2.33;;;;;;;;;;5082421;28;20228;-94
2023/04/12 00:18:42;;;;;;;1.83;0.87;;;;;;;;;;5079464;28;20280;-94
2023/04/12 00:21:22;;;;;;;1.77;1.67;;;;;;;;;;5078579;28;20198;-93
2023/04/12 00:24:00;;;;;;;2.27;2.07;;;;;;;;;;5060828;28;20246;-95
2023/04/12 00:26:31;;;;;;;2.67;1.70;;;;;;;;;;5080389;28;20214;-93
2023/04/12 00:29:12;;;;;;;2.07;1.43;;;;;;;;;;5080077;28;20230;-94
2023/04/12 00:32:00;;;;;;;5.93;1.50;;;;;;;;;;5082487;28;20627;-95
2023/04/12 00:34:52;;;;;;;1.90;1.80;;;;;;;;;;5080831;28;20204;-94
2023/04/12 00:37:27;;;;;;;1.80;1.63;;;;;;;;;;5082187;28;20202;-94
2023/04/12 00:40:05;;;;;;;3.03;1.53;;;;;;;;;;5082654;28;20236;-96
2023/04/12 00:42:57;;;;;;;3.07;1.63;;;;;;;;;;5093109;28;20174;-95
2023/04/12 00:45:43;;;;;;;3.37;1.53;;;;;;;;;;5089959;28;20198;-92
2023/04/12 00:48:19;;;;;;;2.60;2.17;;;;;;;;;;5088731;28;20251;-95
2023/04/12 00:50:56;;;;;;;1.83;1.67;;;;;;;;;;5083348;28;20198;-96
2023/04/12 00:53:31;;;;;;;2.20;2.00;;;;;;;;;;5081735;28;20277;-94
2023/04/12 00:56:27;;;;;;;;;;;;;;;;;;;;;
2023/04/12 00:59:02;;;;;;;3.50;1.67;;;;;;;;;;5082875;28;20234;-94
2023/04/12 01:01:37;;;;;;;2.80;2.57;;;;;;;;;;5085799;28;20208;-93
2023/04/12 01:04:16;;;;;;;2.03;1.83;;;;;;;;;;5085392;28;20223;-93
2023/04/12 01:07:14;;;;;;;3.40;2.00;;;;;;;;;;5083265;28;20261;-95
2023/04/12 01:10:02;;;;;;;5.20;1.80;;;;;;;;;;5085614;28;20203;-92
2023/04/12 01:12:45;;;;;;;1.33;1.23;;;;;;;;;;5064561;28;20203;-94
2023/04/12 01:18:16;;;;;;;;;;;;;;;;;;;;;
2023/04/12 01:21:00;;;;;;;3.77;1.53;;;;;;;;;;5082263;28;20198;-93
2023/04/12 01:24:12;;;;;;;1.80;1.70;;;;;;;;;;5079187;28;20194;-94
2023/04/12 01:32:29;;;;;;;1.93;1.80;;;;;;;;;;5075351;28;20599;-93
2023/04/12 01:35:18;;;;;;;5.37;2.60;;;;;;;;;;5080721;28;20247;-94
2023/04/12 01:37:53;;;;;;;2.20;2.00;;;;;;;;;;5082909;28;20309;-94
2023/04/12 01:40:36;;;;;;;4.30;2.10;;;;;;;;;;5079402;28;20190;-95
2023/04/12 01:43:17;;;;;;;1.33;1.23;;;;;;;;;;5079407;28;20202;-94
2023/04/12 01:45:54;;;;;;;2.17;1.70;;;;;;;;;;5078741;28;20208;-95
2023/04/12 01:49:04;;;;;;;2.87;1.70;;;;;;;;;;5078381;28;20225;-94
2023/04/12 01:51:39;;;;;;;5.07;2.47;;;;;;;;;;5062551;28;20268;-94
2023/04/12 01:54:22;;;;;;;3.50;2.40;;;;;;;;;;5078333;28;20195;-94
2023/04/12 01:57:00;;;;;;;1.37;1.27;;;;;;;;;;5077543;28;20214;-94
2023/04/12 01:59:51;;;;;;;5.10;2.30;;;;;;;;;;5077929;28;20257;-95
2023/04/12 02:02:40;;;;;;;2.83;1.50;;;;;;;;;;5078021;28;20202;-94
2023/04/12 02:05:26;;;;;;;1.60;1.40;;;;;;;;;;5035343;28;20216;-93
2023/04/12 02:08:07;;;;;;;5.03;1.73;;;;;;;;;;5035703;28;20231;-94
2023/04/12 02:10:40;;;;;;;3.13;2.20;;;;;;;;;;5067753;28;20221;-94
2023/04/12 02:13:08;;;;;;;4.13;2.23;;;;;;;;;;5079926;28;20256;-96
2023/04/12 02:15:58;;;;;;;2.07;1.80;;;;;;;;;;5082128;28;20218;-95
2023/04/12 02:18:42;;;;;;;2.97;1.43;;;;;;;;;;5081783;28;20278;-94
2023/04/12 02:21:19;;;;;;;4.53;2.27;;;;;;;;;;5081511;28;20648;-94
2023/04/12 02:23:51;;;;;;;2.40;2.03;;;;;;;;;;5082473;28;20194;-93
2023/04/12 02:26:22;;;;;;;3.10;2.40;;;;;;;;;;5081568;28;20203;-93
2023/04/12 02:28:57;;;;;;;7.10;1.33;;;;;;;;;;5082012;28;20234;-94
2023/04/12 02:31:35;;;;;;;2.37;1.77;;;;;;;;;;5082787;28;20201;-94
2023/04/12 02:34:08;;;;;;;5.37;2.33;;;;;;;;;;5084983;28;20237;-93
2023/04/12 02:36:53;;;;;;;2.80;2.37;;;;;;;;;;5086456;28;20198;-96
2023/04/12 02:39:23;;;;;;;3.53;1.90;;;;;;;;;;5083593;28;20202;-94
2023/04/12 02:42:03;;;;;;;1.97;1.90;;;;;;;;;;5088294;28;20295;-93
2023/04/12 02:44:32;;;;;;;2.13;1.70;;;;;;;;;;5097788;28;20191;-94
2023/04/12 02:47:15;;;;;;;2.70;2.20;;;;;;;;;;5087234;28;20671;-94
2023/04/12 02:52:28;;;;;;;3.10;2.03;;;;;;;;;;5080308;28;20195;-95
2023/04/12 02:55:01;;;;;;;9.33;2.93;;;;;;;;;;5081392;28;20209;-94
2023/04/12 02:57:43;;;;;;;2.63;2.43;;;;;;;;;;5080503;28;20252;-94
2023/04/12 03:00:26;;;;;;;3.70;1.97;;;;;;;;;;5065601;28;20210;-93
2023/04/12 03:03:07;;;;;;;1.70;1.30;;;;;;;;;;5067494;28;20211;-94
2023/04/12 03:05:55;;;;;;;1.93;1.67;;;;;;;;;;5071988;28;20176;-95
2023/04/12 03:08:52;;;;;;;5.67;2.97;;;;;;;;;;5067385;28;20287;-95
2023/04/12 03:11:31;;;;;;;3.50;2.23;;;;;;;;;;5067073;28;20653;-93
2023/04/12 03:14:05;;;;;;;4.07;2.00;;;;;;;;;;5070886;28;20179;-93
2023/04/12 03:16:39;;;;;;;12.00;3.53;;;;;;;;;;5074495;28;20247;-92
2023/04/12 03:19:14;;;;;;;3.67;2.53;;;;;;;;;;5076432;28;20199;-95
2023/04/12 03:21:49;;;;;;;3.43;2.17;;;;;;;;;;5075625;28;20239;-95
2023/04/12 03:24:32;;;;;;;4.67;3.00;;;;;;;;;;5073120;28;20682;-94
2023/04/12 03:30:25;;;;;;;2.93;2.60;;;;;;;;;;5060279;28;20329;-96
2023/04/12 03:36:21;;;;;;;9.07;3.37;;;;;;;;;;5058676;28;20203;-95
2023/04/12 03:38:56;;;;;;;4.07;2.57;;;;;;;;;;5048139;28;20203;-91
2023/04/12 03:44:35;;;;;;;1.87;1.67;;;;;;;;;;5068593;28;20281;-93
2023/04/12 03:47:30;;;;;;;2.60;2.37;;;;;;;;;;5069675;28;20611;-94
2023/04/12 03:50:28;;;;;;;2.53;2.33;;;;;;;;;;5074597;28;20309;-95
2023/04/12 03:53:07;;;;;;;3.17;2.00;;;;;;;;;;5070109;28;20206;-94
2023/04/12 03:55:58;;;;;;;3.93;2.60;;;;;;;;;;5079632;28;20201;-92
2023/04/12 03:58:47;;;;;;;4.03;2.43;;;;;;;;;;5086844;28;20225;-96
2023/04/12 04:01:28;;;;;;;5.30;3.00;;;;;;;;;;5100747;28;20198;-95
2023/04/12 04:06:58;;;;;;;2.70;2.50;;;;;;;;;;5028046;28;20202;-93
2023/04/12 04:24:07;;;;;;;;;;;;;;;;;;;;;
2023/04/12 04:26:44;;;;;;;6.60;4.27;;;;;;;;;;5018923;28;20200;-94
2023/04/12 04:29:19;;;;;;;3.87;2.87;;;;;;;;;;5020193;28;20800;-94
2023/04/12 04:31:53;;;;;;;2.47;2.27;;;;;;;;;;5035211;28;20210;-93
2023/04/12 04:37:17;;;;;;;5.47;3.17;;;;;;;;;;5027149;28;20187;-94
2023/04/12 04:40:05;;;;;;;;;;;;;;;;;;;;;
2023/04/12 04:42:58;;;;;;;5.67;3.73;;;;;;;;;;5046840;28;20210;-94
2023/04/12 04:45:42;;;;;;;6.67;3.10;;;;;;;;;;5085758;28;20198;-95
2023/04/12 04:48:24;;;;;;;4.23;2.13;;;;;;;;;;5084435;28;20209;-93
2023/04/12 04:57:05;;;;;;;;;;;;;;;;;;;;;
2023/04/12 05:06:22;;;;;;;3.27;2.00;;;;;;;;;;5121201;28;20205;-94
2023/04/12 05:12:15;;;;;;;1.93;1.33;;;;;;;;;;5117515;28;20213;-93
2023/04/12 05:17:58;;;;;;;;;;;;;;;;;;;;;
2023/04/12 05:20:48;;;;;;;;;;;;;;;;;;;;;
2023/04/12 05:23:22;;;;;;;4.43;1.90;;;;;;;;;;5127410;28;20208;-93
2023/04/12 05:26:17;;;;;;;1.73;1.00;;;;;;;;;;5132310;28;20204;-92
2023/04/12 05:29:00;;;;;;;1.53;1.43;;;;;;;;;;5132730;28;20223;-92
2023/04/12 05:31:41;;;;;;;2.20;2.00;;;;;;;;;;5132941;28;20181;-93
2023/04/12 05:34:21;;;;;;;2.43;1.40;;;;;;;;;;5132509;28;20190;-92
2023/04/12 05:46:36;;;;;;;2.00;1.57;;;;;;;;;;5117265;27;20600;-96
2023/04/12 05:52:01;;;;;;;7.13;2.13;;;;;;;;;;5084265;27;20233;-94
2023/04/12 06:01:01;;;;;;;1.97;1.30;;;;;;;;;;5115352;28;20280;-92
2023/04/12 06:04:03;;;;;;;;;;;;;;;;;;;;;
2023/04/12 06:06:47;;;;;;;1.90;1.13;;;;;;;;;;5119471;28;20193;-93
2023/04/12 06:09:39;;;;;;;0.67;0.67;;;;;;;;;;5119684;27;20189;-94
2023/04/12 06:12:28;;;;;;;0.80;0.80;;;;;;;;;;5128803;28;20229;-94
2023/04/12 06:14:57;;;;;;;2.20;0.80;;;;;;;;;;5139444;27;20684;-92
2023/04/12 06:20:31;;;;;;;1.07;1.07;;;;;;;;;;5122825;27;20291;-94
2023/04/12 06:23:10;;;;;;;3.43;1.40;;;;;;;;;;5137499;27;20189;-93
2023/04/12 06:28:36;;;;;;;0.77;0.77;;;;;;;;;;5135841;27;20217;-93
2023/04/12 06:31:28;;;;;;;1.53;1.03;;;;;;;;;;5135928;27;20193;-93
2023/04/12 07:05:59;;;;;;;2.63;0.60;;;;;;;;;;5054344;28;20246;-92
2023/04/12 07:15:02;;;;;;;1.83;1.73;;;;;;;;;;5032488;28;20241;-94
2023/04/12 07:18:26;;;;;;;0.80;0.80;;;;;;;;;;5025895;28;20289;-94
2023/04/12 07:26:52;;;;;;;0.67;0.67;;;;;;;;;;4924885;29;20231;-94
2023/04/12 07:29:39;;;;;;;1.10;1.10;;;;;;;;;;4944102;29;20224;-93
2023/04/12 07:35:02;;;;;;;1.50;1.40;;;;;;;;;;5025573;28;20313;-93
2023/04/12 07:37:50;;;;;;;0.80;0.80;;;;;;;;;;5023288;28;20226;-95
2023/04/12 07:47:08;;;;;;;;;;;;;;;;;;;;;
2023/04/12 08:12:13;;;;;;;;;;;;;;;;;;;;;
2023/04/12 08:15:14;;;;;;;1.60;0.77;;;;;;;;;;4944858;28;20201;-96
2023/04/12 08:21:18;;;;;;;0.50;0.50;;;;;;;;;;4941184;29;20203;-94
2023/04/12 08:24:02;;;;;;;3.27;1.10;;;;;;;;;;4996074;28;20190;-93
2023/04/12 08:27:05;;;;;;;;;;;;;;;;;;;;;
2023/04/12 08:39:10;;;;;;;2.08;1.15;;;;;;;;;;5016288;28;20258;-95
2023/04/12 08:41:57;;;;;;;0.50;0.50;;;;;;;;;;5009518;28;20279;-94
2023/04/12 08:44:52;;;;;;;0.63;0.63;;;;;;;;;;5022018;28;20231;-93
2023/04/12 08:47:43;;;;;;;0.77;0.77;;;;;;;;;;5024758;28;20682;-92
2023/04/12 08:57:35;;;;;;;;;;;;;;;;;;;;;
2023/04/12 09:03:17;;;;;;;0.60;0.60;;;;;;;;;;5019139;28;20208;-93
2023/04/12 09:09:37;;;;;;;;;;;;;;;;;;;;;
2023/04/12 09:21:29;;;;;;;0.60;0.60;;;;;;;;;;4970297;28;20245;-95
2023/04/12 09:24:22;;;;;;;;;;;;;;;;;;;;;
2023/04/12 09:27:12;;;;;;;0.50;0.50;;;;;;;;;;4988021;28;20244;-94
2023/04/12 09:29:50;;;;;;;0.73;0.70;;;;;;;;;;5063536;28;20229;-95
2023/04/12 09:32:33;;;;;;;1.40;0.75;;;;;;;;;;5058839;28;20225;-93
2023/04/12 09:35:46;;;;;;;0.43;0.43;;;;;;;;;;5057257;28;20237;-94
2023/04/12 09:38:24;;;;;;;0.80;0.80;;;;;;;;;;5054357;28;20242;-94
2023/04/12 09:40:56;;;;;;;0.50;0.50;;;;;;;;;;5058532;28;20230;-95
2023/04/12 09:43:57;;;;;;;0.55;0.55;;;;;;;;;;5058409;28;20217;-92
2023/04/12 09:46:57;;;;;;;0.55;0.55;;;;;;;;;;5057085;28;20268;-95
2023/04/12 09:49:53;;;;;;;0.73;0.73;;;;;;;;;;5055345;28;20231;-95
2023/04/12 09:52:59;;;;;;;1.35;0.80;;;;;;;;;;5058106;28;20615;-93
2023/04/12 09:55:50;;;;;;;0.50;0.50;;;;;;;;;;5058084;28;20241;-95
2023/04/12 09:58:23;;;;;;;0.85;0.85;;;;;;;;;;5031655;28;20314;-93
2023/04/12 10:04:28;;;;;;;0.52;0.52;;;;;;;;;;4946063;28;20300;-90
2023/04/12 10:07:08;;;;;;;1.02;1.00;;;;;;;;;;5033894;28;20234;-94
2023/04/12 10:10:07;;;;;;;0.20;0.20;;;;;;;;;;5035870;28;20207;-92
2023/04/12 10:25:04;;;;;;;0.30;0.30;;;;;;;;;;4976761;28;20253;-94
2023/04/12 10:27:40;;;;;;;0.20;0.20;;;;;;;;;;5040979;28;20260;-94
2023/04/12 10:33:48;;;;;;;0.20;0.20;;;;;;;;;;5008093;28;20242;-92
2023/04/12 10:42:08;;;;;;;0.30;0.30;;;;;;;;;;5094143;22;20253;-94
2023/04/12 10:47:53;;;;;;;0.45;0.45;;;;;;;;;;5089661;28;20481;-94
2023/04/12 10:50:47;;;;;;;;;;;;;;;;;;;;;
2023/04/12 10:53:31;;;;;;;0.93;0.40;;;;;;;;;;5099031;28;20193;-92
2023/04/12 10:56:30;;;;;;;0.43;0.30;;;;;;;;;;5098556;28;20242;-93
2023/04/12 10:59:12;;;;;;;1.55;0.10;;;;;;;;;;5092320;28;20271;-94
2023/04/12 11:02:14;;;;;;;0.40;0.40;;;;;;;;;;5097146;28;20258;-93
2023/04/12 11:05:06;;;;;;;0.57;0.40;;;;;;;;;;5097459;28;20183;-93
2023/04/12 11:07:54;;;;;;;0.20;0.20;;;;;;;;;;5096334;28;20199;-94
2023/04/12 11:10:30;;;;;;;0.17;0.17;;;;;;;;;;5091699;28;20314;-94
2023/04/12 11:13:18;;;;;;;1.10;0.20;;;;;;;;;;5077501;28;20390;-93
2023/04/12 11:16:02;;;;;;;0.88;0.20;;;;;;;;;;5078052;28;20168;-94
2023/04/12 11:18:45;;;;;;;0.30;0.30;;;;;;;;;;5077814;28;20211;-93
2023/04/12 11:21:25;;;;;;;0.20;0.20;;;;;;;;;;5078148;28;20183;-92
2023/04/12 11:24:06;;;;;;;0.40;0.40;;;;;;;;;;5077140;28;20194;-92
2023/04/12 11:29:45;;;;;;;1.13;0.30;;;;;;;;;;5065226;28;20196;-92
2023/04/12 11:32:41;;;;;;;1.17;0.22;;;;;;;;;;5064622;28;20207;-94
2023/04/12 11:38:11;;;;;;;0.30;0.30;;;;;;;;;;5063805;28;20707;-94
2023/04/12 11:40:50;;;;;;;0.30;0.30;;;;;;;;;;5063300;28;20232;-95
2023/04/12 11:43:31;;;;;;;0.10;0.10;;;;;;;;;;5066265;28;20212;-95
2023/04/12 11:52:32;;;;;;;0.33;0.33;;;;;;;;;;4943011;29;20210;-94
2023/04/12 11:57:58;;;;;;;0.60;0.53;;;;;;;;;;5054117;28;20212;-93
2023/04/12 12:00:44;;;;;;;;;;;;;;;;;;;;;
2023/04/12 12:03:24;;;;;;;0.10;0.10;;;;;;;;;;5060584;28;20565;-92
2023/04/12 12:05:55;;;;;;;0.10;0.10;;;;;;;;;;5059166;28;20228;-92
2023/04/12 12:08:27;;;;;;;0.28;0.28;;;;;;;;;;5063580;28;20204;-92
2023/04/12 12:11:03;;;;;;;0.15;0.15;;;;;;;;;;5066628;28;20226;-92
2023/04/12 12:16:45;;;;;;;0.47;0.47;;;;;;;;;;5062985;28;20204;-93
2023/04/12 12:22:38;;;;;;;0.40;0.40;;;;;;;;;;5059949;28;20206;-95
2023/04/12 12:40:37;;;;;;;0.60;0.50;;;;;;;;;;5070010;28;20247;-96
2023/04/12 12:43:20;;;;;;;0.43;0.43;;;;;;;;;;5087844;28;20205;-95
2023/04/12 12:46:08;;;;;;;0.60;0.38;;;;;;;;;;5091995;28;20232;-94
2023/04/12 12:48:56;;;;;;;3.83;0.50;;;;;;;;;;5095905;28;20209;-93
2023/04/12 12:51:46;;;;;;;0.53;0.20;;;;;;;;;;5095250;28;20194;-94
2023/04/12 12:54:48;;;;;;;0.00;0.00;;;;;;;;;;5093277;28;20205;-94
2023/04/12 12:57:56;;;;;;;0.10;0.10;;;;;;;;;;5094179;28;20212;-95
2023/04/12 13:03:30;;;;;;;0.60;0.60;;;;;;;;;;5080287;28;20205;-93
2023/04/12 13:06:04;;;;;;;0.23;0.23;;;;;;;;;;5081909;28;20239;-94
2023/04/12 13:08:46;;;;;;;0.43;0.17;;;;;;;;;;5082115;28;20212;-93
2023/04/12 13:11:34;;;;;;;0.20;0.20;;;;;;;;;;5088135;28;20213;-93
2023/04/12 13:17:28;;;;;;;0.90;0.30;;;;;;;;;;5094537;28;20196;-91
2023/04/12 13:20:21;;;;;;;0.30;0.30;;;;;;;;;;5095746;28;20194;-92
2023/04/12 13:25:47;;;;;;;0.40;0.40;;;;;;;;;;5079088;28;20199;-92
2023/04/12 13:28:19;;;;;;;0.30;0.30;;;;;;;;;;5077418;28;20196;-94
2023/04/12 13:30:54;;;;;;;0.10;0.10;;;;;;;;;;5078652;28;20220;-94
2023/04/12 13:33:31;;;;;;;0.23;0.23;;;;;;;;;;5078325;28;20213;-94
2023/04/12 13:36:10;;;;;;;0.30;0.30;;;;;;;;;;5078860;28;20254;-94
2023/04/12 13:41:45;;;;;;;0.20;0.20;;;;;;;;;;5078852;28;20242;-94
2023/04/12 13:47:35;;;;;;;0.70;0.70;;;;;;;;;;5078056;28;20232;-96
2023/04/12 13:50:26;;;;;;;0.70;0.60;;;;;;;;;;5076709;28;20202;-94
2023/04/12 13:56:33;;;;;;;0.33;0.33;;;;;;;;;;5076238;28;20210;-93
2023/04/12 14:02:37;;;;;;;0.40;0.40;;;;;;;;;;5072179;28;20230;-96
2023/04/12 14:08:26;;;;;;;0.20;0.20;;;;;;;;;;5081851;28;20686;-96
2023/04/12 14:11:20;;;;;;;2.10;0.40;;;;;;;;;;5084224;28;20238;-93
2023/04/12 14:43:57;;;;;;;0.00;0.00;;;;;;;;;;5104073;22;20230;-95
2023/04/12 14:55:51;;;;;;;1.40;0.43;;;;;;;;;;5244645;22;20330;-95
2023/04/12 14:58:47;;;;;;;;;;;;;;;;;;;;;
2023/04/12 15:04:31;;;;;;;1.03;0.60;;;;;;;;;;5097973;23;20214;-96
2023/04/12 15:07:12;;;;;;;0.20;0.20;;;;;;;;;;5087921;28;20713;-95
2023/04/12 15:09:57;;;;;;;1.67;0.60;;;;;;;;;;5083621;28;20206;-93
2023/04/12 15:15:48;;;;;;;0.77;0.77;;;;;;;;;;5056957;28;20230;-93
2023/04/12 15:24:44;;;;;;;2.23;1.07;;;;;;;;;;5055900;28;20589;-94
2023/04/12 15:39:28;;;;;;;0.67;0.67;;;;;;;;;;5117340;22;20243;-95
2023/04/12 15:45:47;;;;;;;0.60;0.60;;;;;;;;;;5063368;28;20200;-95
2023/04/12 15:51:46;;;;;;;0.57;0.57;;;;;;;;;;5054613;22;20260;-95
2023/04/12 15:54:21;;;;;;;2.00;0.97;;;;;;;;;;4962749;28;20208;-95
2023/04/12 16:05:21;;;;;;;1.37;1.37;;;;;;;;;;4976802;28;20215;-93
2023/04/12 16:11:46;;;;;;;0.20;0.20;;;;;;;;;;4964614;28;20219;-94
2023/04/12 16:20:26;;;;;;;;;;;;;;;;;;;;;
2023/04/12 16:23:15;;;;;;;0.50;0.50;;;;;;;;;;4985639;28;20636;-94
2023/04/12 16:26:04;;;;;;;0.30;0.30;;;;;;;;;;4986806;28;20218;-95
2023/04/12 16:29:12;;;;;;;;;;;;;;;;;;;;;
2023/04/12 16:40:35;;;;;;;0.60;0.43;;;;;;;;;;5128618;23;20229;-92
2023/04/12 16:46:18;;;;;;;0.40;0.40;;;;;;;;;;4991384;28;20256;-93
2023/04/12 16:48:57;;;;;;;0.40;0.40;;;;;;;;;;4981329;28;20227;-95
2023/04/12 16:57:51;;;;;;;0.60;0.60;;;;;;;;;;4967239;28;20567;-95
2023/04/12 17:03:10;;;;;;;2.87;0.90;;;;;;;;;;4987293;28;20217;-88
2023/04/12 17:05:40;;;;;;;1.70;1.00;;;;;;;;;;4986563;28;20241;-88
2023/04/12 17:08:11;;;;;;;2.13;0.90;;;;;;;;;;4987335;28;20229;-94
2023/04/12 17:13:43;;;;;;;0.60;0.60;;;;;;;;;;4969239;29;20235;-90
2023/04/12 17:16:22;;;;;;;0.67;0.67;;;;;;;;;;4971260;28;20258;-92
2023/04/12 17:19:23;;;;;;;0.50;0.50;;;;;;;;;;4958475;28;20338;-93
2023/04/12 17:21:54;;;;;;;0.43;0.43;;;;;;;;;;4955730;28;20218;-92
2023/04/12 17:24:27;;;;;;;0.53;0.53;;;;;;;;;;4954094;29;20258;-93
2023/04/12 17:26:58;;;;;;;0.43;0.43;;;;;;;;;;4950673;28;20250;-93
2023/04/12 17:29:36;;;;;;;0.70;0.70;;;;;;;;;;4955061;29;20727;-93
2023/04/12 17:32:16;;;;;;;0.80;0.70;;;;;;;;;;4952774;28;20653;-94
2023/04/12 17:34:53;;;;;;;1.30;1.20;;;;;;;;;;4963148;29;20223;-95
2023/04/12 17:37:24;;;;;;;0.70;0.70;;;;;;;;;;4953451;28;20804;-92
2023/04/12 17:40:03;;;;;;;0.50;0.50;;;;;;;;;;4954642;28;20270;-93
2023/04/12 17:42:54;;;;;;;0.80;0.80;;;;;;;;;;4956263;28;20234;-93
2023/04/12 17:51:25;;;;;;;0.53;0.53;;;;;;;;;;4940613;29;20237;-93
2023/04/12 17:54:10;;;;;;;0.53;0.53;;;;;;;;;;4958341;28;20257;-93
2023/04/12 17:59:52;;;;;;;0.50;0.50;;;;;;;;;;4969272;28;20268;-93
2023/04/12 18:02:33;;;;;;;0.70;0.30;;;;;;;;;;4943447;28;20238;-91
2023/04/12 18:05:16;;;;;;;0.70;0.70;;;;;;;;;;4952990;28;20226;-93
2023/04/12 18:07:58;;;;;;;1.10;0.60;;;;;;;;;;4953807;28;20806;-94
2023/04/12 18:10:35;;;;;;;5.37;0.70;;;;;;;;;;4954799;28;20336;-93
2023/04/12 18:16:20;;;;;;;1.23;0.87;;;;;;;;;;4955819;28;20241;-92
2023/04/12 18:22:15;;;;;;;0.30;0.30;;;;;;;;;;4953391;28;20265;-88
2023/04/12 18:25:06;;;;;;;3.20;0.73;;;;;;;;;;4952194;28;20233;-88
2023/04/12 18:36:53;;;;;;;1.10;1.10;;;;;;;;;;4870391;29;20296;-93
2023/04/12 18:39:34;;;;;;;1.67;0.67;;;;;;;;;;4895037;28;20249;-92
2023/04/12 18:42:10;;;;;;;1.93;0.57;;;;;;;;;;4927701;28;20218;-93
2023/04/12 18:44:51;;;;;;;4.57;1.07;;;;;;;;;;4968066;28;20242;-93
2023/04/12 18:47:30;;;;;;;0.50;0.33;;;;;;;;;;4955117;29;20253;-94
2023/04/12 18:50:06;;;;;;;2.30;0.97;;;;;;;;;;4948822;28;20284;-88
2023/04/12 18:52:46;;;;;;;0.83;0.83;;;;;;;;;;4952315;28;20222;-89
2023/04/12 18:55:30;;;;;;;2.10;0.80;;;;;;;;;;4954895;28;20222;-89
2023/04/12 18:58:27;;;;;;;1.37;1.27;;;;;;;;;;4948329;28;20308;-88
2023/04/12 19:01:02;;;;;;;3.50;1.10;;;;;;;;;;4952198;28;20285;-89
2023/04/12 19:03:40;;;;;;;1.77;1.60;;;;;;;;;;4951321;28;20230;-89
2023/04/12 19:06:20;;;;;;;0.27;0.27;;;;;;;;;;4954019;28;20226;-88
2023/04/12 19:09:00;;;;;;;0.43;0.43;;;;;;;;;;4952344;28;20246;-89
2023/04/12 19:11:40;;;;;;;0.53;0.53;;;;;;;;;;4952123;29;20222;-88
2023/04/12 19:14:11;;;;;;;0.43;0.40;;;;;;;;;;4952451;28;20231;-89
2023/04/12 19:16:46;;;;;;;0.77;0.77;;;;;;;;;;4956135;29;20234;-89
2023/04/12 19:22:03;;;;;;;1.33;0.73;;;;;;;;;;4955355;29;20222;-93
2023/04/12 19:27:34;;;;;;;0.47;0.47;;;;;;;;;;4949542;29;20247;-91
2023/04/12 19:30:19;;;;;;;0.43;0.43;;;;;;;;;;4965479;28;20234;-93
2023/04/12 19:36:28;;;;;;;1.67;0.73;;;;;;;;;;4944306;28;20261;-91
2023/04/12 19:54:22;;;;;;;1.70;0.47;;;;;;;;;;4840190;29;20249;-92
2023/04/12 20:09:21;;;;;;;1.60;0.47;;;;;;;;;;4944887;29;20239;-91
2023/04/12 20:12:00;;;;;;;0.40;0.40;;;;;;;;;;4920718;28;20282;-91
2023/04/12 20:18:16;;;;;;;1.13;0.60;;;;;;;;;;4939403;29;20265;-93
2023/04/12 20:20:56;;;;;;;0.97;0.80;;;;;;;;;;4937897;28;20616;-94
2023/04/12 20:26:35;;;;;;;2.23;0.90;;;;;;;;;;4934606;28;20243;-93
2023/04/12 20:29:45;;;;;;;0.60;0.60;;;;;;;;;;4938264;29;20242;-93
2023/04/12 20:32:27;;;;;;;;;;;;;;;;;;;;;
2023/04/12 20:34:57;;;;;;;1.90;1.23;;;;;;;;;;4935611;29;20238;-89
2023/04/12 20:37:26;;;;;;;1.50;0.40;;;;;;;;;;4931836;28;20220;-89
2023/04/12 20:39:58;;;;;;;0.47;0.47;;;;;;;;;;4939559;28;20247;-89
2023/04/12 20:42:30;;;;;;;1.13;0.60;;;;;;;;;;4951983;28;20284;-93
2023/04/12 20:45:03;;;;;;;0.50;0.50;;;;;;;;;;4965442;29;20215;-93
2023/04/12 20:47:33;;;;;;;1.17;1.07;;;;;;;;;;4955973;28;20242;-93
2023/04/12 20:50:09;;;;;;;1.40;1.00;;;;;;;;;;4955186;28;20284;-93
2023/04/12 20:52:41;;;;;;;1.67;1.43;;;;;;;;;;4955256;28;20226;-94
2023/04/12 20:55:31;;;;;;;1.10;1.10;;;;;;;;;;4954900;29;20219;-92
2023/04/12 20:58:10;;;;;;;0.80;0.80;;;;;;;;;;4954067;29;20611;-92
2023/04/12 21:00:45;;;;;;;0.40;0.40;;;;;;;;;;4956463;28;20207;-93
2023/04/12 21:05:57;;;;;;;2.47;1.13;;;;;;;;;;5075885;28;20214;-91
2023/04/12 21:08:25;;;;;;;0.37;0.37;;;;;;;;;;5077671;28;20230;-92
2023/04/12 21:11:04;;;;;;;1.13;1.07;;;;;;;;;;5065680;28;20222;-92
2023/04/12 21:13:35;;;;;;;0.77;0.50;;;;;;;;;;5075715;28;20277;-92
2023/04/12 21:16:07;;;;;;;1.70;0.83;;;;;;;;;;5076222;28;20216;-91
2023/04/12 21:18:35;;;;;;;1.00;0.83;;;;;;;;;;5077254;28;20221;-94
2023/04/12 21:21:08;;;;;;;1.30;1.13;;;;;;;;;;5075401;28;20355;-92
2023/04/12 21:23:36;;;;;;;0.40;0.40;;;;;;;;;;5076114;28;20209;-94
2023/04/12 21:26:05;;;;;;;0.73;0.40;;;;;;;;;;5076340;28;20190;-92
2023/04/12 21:28:41;;;;;;;0.50;0.50;;;;;;;;;;5078153;28;20222;-91
2023/04/12 21:33:57;;;;;;;0.73;0.73;;;;;;;;;;5076980;28;20199;-94
2023/04/12 21:36:26;;;;;;;0.23;0.23;;;;;;;;;;5076411;28;20294;-94
2023/04/12 21:39:01;;;;;;;0.33;0.33;;;;;;;;;;5077124;28;20202;-92
2023/04/12 21:41:40;;;;;;;2.10;1.10;;;;;;;;;;5076256;28;20209;-93
2023/04/12 21:44:16;;;;;;;0.83;0.83;;;;;;;;;;5076578;28;20235;-94
2023/04/12 21:46:47;;;;;;;2.00;0.20;;;;;;;;;;5075682;28;20194;-93
2023/04/12 21:49:17;;;;;;;0.50;0.50;;;;;;;;;;5075648;28;20253;-90
2023/04/12 21:51:55;;;;;;;0.30;0.30;;;;;;;;;;5076463;28;20203;-91
2023/04/12 21:54:29;;;;;;;0.67;0.67;;;;;;;;;;5055494;28;20268;-93
2023/04/12 21:57:12;;;;;;;0.43;0.43;;;;;;;;;;5054859;28;20698;-91
2023/04/12 22:00:08;;;;;;;0.40;0.40;;;;;;;;;;5054083;28;20373;-92
2023/04/12 22:02:51;;;;;;;0.97;0.40;;;;;;;;;;5055745;28;20203;-94
2023/04/12 22:05:26;;;;;;;0.47;0.47;;;;;;;;;;5055642;28;20239;-92
2023/04/12 22:07:54;;;;;;;0.50;0.50;;;;;;;;;;5056794;28;20258;-92
2023/04/12 22:10:23;;;;;;;0.53;0.53;;;;;;;;;;5057688;28;20302;-91
2023/04/12 22:12:52;;;;;;;0.50;0.50;;;;;;;;;;5055696;28;20663;-91
2023/04/12 22:15:22;;;;;;;0.37;0.37;;;;;;;;;;5056350;28;20194;-94
2023/04/12 22:17:57;;;;;;;0.50;0.50;;;;;;;;;;5056466;28;20520;-93
2023/04/12 22:20:27;;;;;;;0.47;0.47;;;;;;;;;;5058839;28;20209;-93
2023/04/12 22:23:03;;;;;;;0.47;0.47;;;;;;;;;;5072406;28;20313;-91
2023/04/12 22:25:39;;;;;;;0.10;0.10;;;;;;;;;;5067817;28;20188;-92
2023/04/12 22:28:15;;;;;;;0.37;0.37;;;;;;;;;;5063914;28;20245;-92
2023/04/12 22:30:49;;;;;;;0.43;0.43;;;;;;;;;;5062054;28;20267;-92
2023/04/12 22:36:30;;;;;;;0.40;0.40;;;;;;;;;;5058498;28;20595;-92
2023/04/12 22:38:59;;;;;;;0.20;0.20;;;;;;;;;;5058566;28;20707;-92
2023/04/12 22:41:31;;;;;;;0.10;0.10;;;;;;;;;;5059591;28;20207;-92
2023/04/12 22:44:01;;;;;;;0.30;0.30;;;;;;;;;;5059661;28;20264;-94
2023/04/12 22:46:37;;;;;;;0.30;0.30;;;;;;;;;;5060823;28;20210;-93
2023/04/12 22:49:12;;;;;;;0.97;0.37;;;;;;;;;;5060366;28;20280;-93
2023/04/12 22:51:45;;;;;;;0.60;0.47;;;;;;;;;;5060291;28;20280;-91
2023/04/12 22:54:13;;;;;;;0.50;0.50;;;;;;;;;;5080337;28;20206;-93
2023/04/12 22:56:46;;;;;;;0.63;0.63;;;;;;;;;;5081410;28;20611;-91
2023/04/12 22:59:16;;;;;;;1.27;0.90;;;;;;;;;;5081873;28;20209;-92
2023/04/12 23:01:44;;;;;;;0.87;0.87;;;;;;;;;;5087907;28;20199;-91
2023/04/12 23:04:13;;;;;;;0.50;0.50;;;;;;;;;;5094296;28;20225;-91
2023/04/12 23:06:46;;;;;;;0.40;0.40;;;;;;;;;;5091582;28;20202;-92
2023/04/12 23:09:16;;;;;;;3.17;0.70;;;;;;;;;;5097347;28;20222;-90
2023/04/12 23:11:46;;;;;;;0.33;0.33;;;;;;;;;;5097770;28;20210;-92
2023/04/12 23:14:16;;;;;;;0.40;0.40;;;;;;;;;;5094941;28;20254;-91
2023/04/12 23:16:46;;;;;;;1.20;0.80;;;;;;;;;;5092671;28;20199;-93
2023/04/12 23:19:23;;;;;;;0.40;0.40;;;;;;;;;;5095066;28;20190;-92
2023/04/12 23:21:55;;;;;;;0.83;0.30;;;;;;;;;;5095434;28;20213;-92
2023/04/12 23:24:26;;;;;;;0.20;0.20;;;;;;;;;;5091832;28;20287;-93
2023/04/12 23:26:56;;;;;;;0.30;0.30;;;;;;;;;;5081807;28;20227;-93
2023/04/12 23:29:27;;;;;;;0.50;0.50;;;;;;;;;;5079709;28;20344;-93
2023/04/12 23:31:55;;;;;;;0.67;0.67;;;;;;;;;;5080372;28;20199;-93
2023/04/12 23:34:25;;;;;;;0.30;0.30;;;;;;;;;;5078924;28;20199;-93
2023/04/12 23:36:58;;;;;;;0.40;0.40;;;;;;;;;;5078227;28;20258;-92
2023/04/12 23:39:33;;;;;;;0.77;0.77;;;;;;;;;;5078279;28;20199;-92
2023/04/12 23:42:00;;;;;;;0.40;0.40;;;;;;;;;;5077571;28;20198;-92
2023/04/12 23:44:29;;;;;;;0.10;0.10;;;;;;;;;;5077876;28;20222;-94
2023/04/12 23:46:57;;;;;;;0.10;0.03;;;;;;;;;;5078311;28;20205;-93
2023/04/12 23:49:28;;;;;;;0.40;0.40;;;;;;;;;;5077784;28;20343;-92
2023/04/12 23:51:58;;;;;;;0.23;0.23;;;;;;;;;;5076628;28;20218;-91
2023/04/12 23:54:26;;;;;;;0.60;0.10;;;;;;;;;;5077884;28;20202;-91
2023/04/12 23:56:57;;;;;;;0.20;0.20;;;;;;;;;;5077409;28;20214;-92
2023/04/12 23:59:26;;;;;;;1.13;0.67;;;;;;;;;;5077097;28;20556;-93
